• Join FlightAware (Why Join?)
  • Login
  • US Flag 
Gobble Gobble! 
03:18AM EST


 

Airport Tracker/Info


-or-


 

Live Flight TrackerFlight Track Log ✈ LT912 ✈ 29-Apr-2013 ✈ CYEG - CYMM

Flight Track Log - Related Links

Times and Time Zones

All times are in EDT time to prevent confusion due to time zone crossing. See the LT912 flight status page for this flight to view local times or setup timezone preferences in your user account.

Time Position Orientation Groundspeed Altitude Reporting Facility
EDT Latitude Longitude Course Direction KTS MPH feet Rate Location/Type
09:19PM 53.3000 -113.6333 310° West 120 138 4,500  Level Edmonton Center
09:20PM 53.3333 -113.5833 42° Northeast 130 150 6,500 1,860 Climbing Edmonton Center
09:21PM 53.3500 -113.5667 31° Northeast 150 173 8,300 1,740 Climbing Edmonton Center
09:22PM 53.4000 -113.5167 31° Northeast 160 184 10,100 1,740 Climbing Edmonton Center
09:23PM 53.4333 -113.5000 17° North 160 184 11,900 1,800 Climbing Edmonton Center
09:24PM 53.6593 -113.3411 20° North  Level FlightAware Approximate
09:24PM 53.4667 -113.4833 17° North 150 173 13,700  Level Edmonton Center
09:25PM 53.5333 -113.4333 24° Northeast 160 184 15,400 1,560 Climbing Edmonton Center
09:26PM 53.5667 -113.4167 17° North 170 196 16,900 1,500 Climbing Edmonton Center
09:27PM 53.6167 -113.4000 11° North 170 196 18,400 1,320 Climbing Edmonton Center
09:28PM 53.6500 -113.3500 42° Northeast 180 207 19,600 1,140 Climbing Edmonton Center
09:29PM 53.7000 -113.3333 11° North 190 219 20,700 1,200 Climbing Edmonton Center
09:30PM 53.7667 -113.2833 24° Northeast 190 219 22,000 1,080 Climbing Edmonton Center
09:31PM 53.8167 -113.2667 11° North 190 219 22,900 480 Climbing Edmonton Center
09:32PM 53.8667 -113.2167 31° Northeast 230 265 23,000  Climbing Edmonton Center
09:33PM 53.9167 -113.1667 30° Northeast 250 288 23,000  Level Edmonton Center
09:34PM 54.0000 -113.1333 13° North 260 299 23,000  Level Edmonton Center
09:35PM 54.0667 -113.0833 24° Northeast 260 299 23,000  Level Edmonton Center
09:36PM 54.1333 -113.0333 24° Northeast 260 299 23,000  Level Edmonton Center
09:37PM 54.2000 -113.0000 16° North 260 299 23,000  Level Edmonton Center
09:38PM 54.2667 -112.9500 24° Northeast 260 299 23,000  Level Edmonton Center
09:39PM 54.3333 -112.9000 24° Northeast 260 299 23,000  Level Edmonton Center
09:40PM 54.4000 -112.8667 16° North 260 299 23,000  Level Edmonton Center
09:41PM 54.4667 -112.8167 24° Northeast 260 299 23,000  Level Edmonton Center
09:42PM 54.5500 -112.7667 19° North 270 311 23,000  Level Edmonton Center
09:43PM 54.6167 -112.7000 30° Northeast 270 311 23,000  Level Edmonton Center
09:44PM 54.6833 -112.6500 23° Northeast 270 311 23,000  Level Edmonton Center
09:45PM 54.7667 -112.6000 19° North 270 311 23,000  Level Edmonton Center
09:46PM 54.8333 -112.5667 16° North 280 322 23,000  Level Edmonton Center
09:47PM 54.9000 -112.5167 23° Northeast 270 311 23,000  Level Edmonton Center
09:48PM 54.9667 -112.4667 23° Northeast 270 311 23,000  Level Edmonton Center
09:49PM 55.0500 -112.4167 19° North 270 311 23,000  Level Edmonton Center
09:50PM 55.1167 -112.3500 30° Northeast 280 322 23,000  Level Edmonton Center
09:51PM 55.1833 -112.3000 23° Northeast 280 322 23,000  Level Edmonton Center
09:52PM 55.2667 -112.2500 19° North 280 322 23,000  Level Edmonton Center
09:53PM 55.3500 -112.2167 13° North 280 322 23,000  Level Edmonton Center
09:54PM 55.4167 -112.1667 23° Northeast 280 322 23,000  Level Edmonton Center
09:55PM 55.4833 -112.1167 23° Northeast 280 322 23,000  Level Edmonton Center
09:56PM 55.5667 -112.0667 19° North 280 322 23,000 -180 Level Edmonton Center
09:58PM 55.7167 -111.9833 17° North 280 322 22,600 -600 Descending Edmonton Center
10:00PM 55.8833 -111.8667 21° North 300 345 20,600 -1,200 Descending Edmonton Center
10:01PM 55.9500 -111.8167 23° Northeast 300 345 19,000 -1,980 Descending Edmonton Center
10:02PM 56.0333 -111.7667 19° North 310 357 16,700 -2,280 Descending Edmonton Center
10:03PM 56.1000 -111.7167 23° Northeast 300 345 14,500 -1,980 Descending Edmonton Center
10:04PM 56.1833 -111.6667 18° North 290 334 12,800 -1,980 Descending Edmonton Center
10:05PM 56.2667 -111.6000 24° Northeast 290 334 10,600 -2,160 Descending Edmonton Center
10:06PM 56.3333 -111.5500 23° Northeast 280 322 8,500 -2,100 Descending Edmonton Center
10:07PM 56.3833 -111.5167 20° North 250 288 6,400 -1,860 Descending Edmonton Center
10:08PM 56.4667 -111.4667 18° North 220 253 4,800 -1,200 Descending Edmonton Center
10:09PM 56.5000 -111.4500 15° North 200 230 4,100 -720 Descending Edmonton Center
10:10PM 56.5500 -111.4000 29° Northeast 190 219 3,400 -720 Descending Edmonton Center
10:11PM 56.6000 -111.3500 29° Northeast 190 219 2,700 -840 Descending Edmonton Center
10:12PM 56.6333 -111.2833 48° Northeast 160 184 1,800 -720 Descending Edmonton Center
10:13PM 56.6333 -111.2500 90° East 120 138 1,300 -540 Descending Edmonton Center